Time;durP1;ratioP1;P1;durP2;ratioP2;P2;SDS_P1;SDS_P2;PMS_P1;PMS_P2;Temp;Humidity;BMP_temperature;BMP_pressure;BME280_temperature;BME280_humidity;BME280_pressure;Samples;Min_cycle;Max_cycle;Signal;HPM_P1;HPM_P2
2022/09/24 00:03:50;;;;;;;62.20;36.30;;;;;;;8.23;76.91;98704.17;435104;1265;107836;-40
2022/09/24 00:13:59;;;;;;;53.60;32.70;;;;;;;8.18;76.94;98702.55;434889;1265;97738;-40
2022/09/24 00:24:06;;;;;;;45.90;28.20;;;;;;;8.20;76.87;98693.86;434900;1265;110086;-40
2022/09/24 00:34:13;;;;;;;41.90;26.70;;;;;;;8.25;76.94;98680.53;435160;1264;108840;-39
2022/09/24 00:44:48;;;;;;;37.50;24.00;;;;;;;8.30;77.09;98667.59;434763;1265;96634;-41
2022/09/24 00:54:56;;;;;;;44.60;26.80;;;;;;;8.35;77.12;98656.30;434112;1268;107947;-40
2022/09/24 01:05:04;;;;;;;44.30;25.60;;;;;;;8.33;77.20;98648.96;435069;1264;97999;-41
2022/09/24 01:15:14;;;;;;;38.00;23.50;;;;;;;8.23;77.00;98639.34;435021;1265;111173;-42
2022/09/24 01:25:29;;;;;;;37.80;24.90;;;;;;;8.04;76.86;98631.54;434889;1264;109098;-41
2022/09/24 01:35:38;;;;;;;40.20;21.90;;;;;;;7.88;76.88;98625.32;434914;1255;98185;-40
2022/09/24 01:45:46;;;;;;;33.70;19.90;;;;;;;7.79;77.09;98619.45;434167;1265;111121;-40
2022/09/24 01:55:59;;;;;;;37.10;24.20;;;;;;;7.57;77.08;98618.36;434347;1265;108838;-39
2022/09/24 02:06:04;;;;;;;45.20;26.30;;;;;;;7.25;77.26;98611.50;434400;1264;97898;-40
2022/09/24 02:16:18;;;;;;;38.30;23.50;;;;;;;7.09;77.46;98602.70;434357;1265;96637;-40
2022/09/24 02:26:26;;;;;;;35.60;21.60;;;;;;;7.00;77.62;98598.23;434426;1265;108985;-40
2022/09/24 02:36:34;;;;;;;38.60;21.20;;;;;;;6.97;77.85;98595.91;434744;1265;97481;-43
2022/09/24 02:46:41;;;;;;;36.50;22.20;;;;;;;6.98;78.00;98596.23;434564;1264;108786;-42
2022/09/24 02:56:49;;;;;;;37.10;21.60;;;;;;;6.95;78.35;98594.14;434781;1264;97442;-39
2022/09/24 03:06:57;;;;;;;41.00;22.00;;;;;;;6.90;78.36;98587.00;435037;1264;111619;-40
2022/09/24 03:17:04;;;;;;;39.70;23.30;;;;;;;6.79;78.53;98583.02;434454;1264;108778;-40
2022/09/24 03:27:11;;;;;;;39.10;23.10;;;;;;;6.70;78.64;98588.30;434506;1264;96611;-40
2022/09/24 03:37:18;;;;;;;42.20;24.00;;;;;;;6.65;78.93;98583.67;434548;1265;108637;-42
2022/09/24 03:47:25;;;;;;;42.50;23.90;;;;;;;6.63;78.95;98585.20;435083;1264;97849;-40
2022/09/24 03:57:32;;;;;;;44.70;27.00;;;;;;;6.65;79.19;98591.83;434738;1264;111160;-39
2022/09/24 04:07:41;;;;;;;45.60;27.80;;;;;;;6.61;79.37;98589.44;434899;1265;109004;-39
2022/09/24 04:17:49;;;;;;;45.50;30.50;;;;;;;6.66;79.48;98588.52;434724;1264;97936;-41
2022/09/24 04:27:59;;;;;;;58.50;34.70;;;;;;;6.65;79.50;98577.04;434767;1264;108770;-41
2022/09/24 04:38:06;;;;;;;56.90;34.20;;;;;;;6.59;79.74;98577.16;434444;1264;97818;-41
2022/09/24 04:48:13;;;;;;;55.10;34.90;;;;;;;6.53;79.67;98572.97;434678;1265;97760;-41
2022/09/24 04:58:21;;;;;;;50.20;30.10;;;;;;;6.57;79.97;98570.93;435078;1264;109082;-40
2022/09/24 05:08:28;;;;;;;57.60;33.60;;;;;;;6.60;79.92;98562.64;435036;1265;98547;-38
2022/09/24 05:18:36;;;;;;;52.80;32.90;;;;;;;6.77;80.17;98561.23;434629;1264;111603;-38
2022/09/24 05:28:43;;;;;;;51.80;33.90;;;;;;;6.96;80.19;98559.39;434848;1265;109274;-38
2022/09/24 05:38:50;;;;;;;73.00;41.90;;;;;;;7.10;80.22;98557.84;434901;1264;97651;-39
2022/09/24 05:48:56;;;;;;;63.70;41.10;;;;;;;7.13;80.41;98557.95;434620;1265;111188;-41
2022/09/24 05:59:03;;;;;;;57.40;34.90;;;;;;;7.29;80.48;98559.02;434799;1265;108839;-40
2022/09/24 06:09:11;;;;;;;49.90;32.30;;;;;;;7.53;80.65;98563.66;434691;1264;97895;-40
2022/09/24 06:19:18;;;;;;;55.70;37.60;;;;;;;7.91;80.60;98563.96;434652;1264;180871;-41
2022/09/24 06:29:25;;;;;;;55.50;37.50;;;;;;;8.16;80.55;98567.42;434804;1265;108717;-41
2022/09/24 06:49:39;;;;;;;42.20;28.10;;;;;;;8.83;80.31;98561.82;434778;1265;111595;-41
2022/09/24 06:59:47;;;;;;;39.40;25.10;;;;;;;9.44;80.17;98563.45;434513;1265;108875;-42
2022/09/24 07:09:54;;;;;;;45.80;28.10;;;;;;;9.93;79.88;98566.58;434512;1265;97913;-41
2022/09/24 07:20:01;;;;;;;36.90;24.00;;;;;;;10.44;79.59;98574.31;434988;1265;111163;-39
2022/09/24 07:30:08;;;;;;;45.80;26.90;;;;;;;10.78;78.96;98575.38;435066;1265;107779;-41
2022/09/24 07:40:15;;;;;;;32.10;22.70;;;;;;;11.09;78.22;98576.29;434845;1265;108979;-41
2022/09/24 07:50:22;;;;;;;32.60;21.00;;;;;;;11.50;77.92;98578.49;434826;1265;97336;-38
2022/09/24 08:00:30;;;;;;;30.50;21.20;;;;;;;11.80;77.58;98575.84;434749;1264;108805;-39
2022/09/24 08:20:44;;;;;;;33.90;20.70;;;;;;;12.60;76.12;98576.58;435164;1264;98555;-39
2022/09/24 08:30:51;;;;;;;28.60;20.00;;;;;;;12.97;75.77;98577.25;434601;1265;111090;-41
2022/09/24 08:41:05;;;;;;;24.30;17.10;;;;;;;13.35;75.18;98580.76;434647;1265;108859;-41
2022/09/24 09:01:22;;;;;;;15.90;10.80;;;;;;;14.73;73.68;98584.52;434783;1265;97880;-41
2022/09/24 09:11:32;;;;;;;11.00;7.60;;;;;;;15.73;72.96;98579.02;434703;1265;111248;-39
2022/09/24 09:21:43;;;;;;;8.50;7.00;;;;;;;16.02;70.27;98573.04;434888;1264;108918;-40
2022/09/24 09:31:49;;;;;;;8.50;6.70;;;;;;;16.03;69.46;98568.98;435075;1263;109051;-40
2022/09/24 10:02:20;;;;;;;8.10;4.80;;;;;;;16.44;66.74;98535.23;434985;1265;109031;-39
2022/09/24 10:12:27;;;;;;;5.60;4.40;;;;;;;16.49;64.79;98536.61;434386;1262;97870;-44
2022/09/24 11:03:09;;;;;;;4.20;3.60;;;;;;;16.37;59.64;98525.79;434911;1264;108492;-38
2022/09/24 11:54:44;;;;;;;3.50;2.60;;;;;;;16.48;56.84;98510.30;434767;1264;109043;-42
2022/09/24 12:25:01;;;;;;;3.60;3.30;;;;;;;16.05;55.84;98507.16;435005;1264;97896;-40
2022/09/24 12:35:12;;;;;;;4.40;3.40;;;;;;;16.07;56.16;98502.73;434840;1265;97519;-40
2022/09/24 12:55:27;;;;;;;4.70;3.50;;;;;;;15.91;55.13;98485.79;434783;1264;98464;-42
2022/09/24 13:05:35;;;;;;;2.80;2.40;;;;;;;16.03;55.17;98473.02;435027;1264;108951;-41
2022/09/24 13:15:43;;;;;;;8.60;3.80;;;;;;;16.28;55.03;98466.09;434756;1264;97509;-41
2022/09/24 13:25:56;;;;;;;3.20;2.80;;;;;;;16.21;55.00;98465.21;434956;1264;111257;-39
2022/09/24 13:36:05;;;;;;;3.60;3.20;;;;;;;15.78;54.39;98469.20;434828;1265;108800;-39
2022/09/24 13:46:11;;;;;;;5.00;3.70;;;;;;;15.83;55.16;98461.20;434840;1264;108439;-40
2022/09/24 14:06:33;;;;;;;12.20;3.30;;;;;;;15.44;54.95;98436.91;435175;1265;111075;-40
2022/09/24 14:16:41;;;;;;;4.10;3.40;;;;;;;15.20;55.77;98431.14;435240;1265;108774;-40
2022/09/24 14:26:46;;;;;;;4.40;3.10;;;;;;;15.26;56.63;98430.66;434794;1264;108707;-42
2022/09/24 14:36:53;;;;;;;7.70;4.40;;;;;;;15.29;56.84;98424.59;434786;1265;98633;-39
2022/09/24 14:57:11;;;;;;;6.00;5.10;;;;;;;15.27;57.24;98427.84;435154;1264;109062;-40
2022/09/24 15:17:23;;;;;;;7.90;5.80;;;;;;;14.83;57.36;98428.33;434620;1264;97502;-41
2022/09/24 15:27:34;;;;;;;8.70;4.80;;;;;;;14.65;58.08;98420.88;434904;1264;111062;-39
2022/09/24 15:37:42;;;;;;;9.40;5.00;;;;;;;14.49;58.61;98423.26;435087;1265;108834;-39
2022/09/24 15:47:50;;;;;;;9.90;6.60;;;;;;;14.30;59.22;98420.59;435048;1264;97582;-39
2022/09/24 15:57:57;;;;;;;11.40;8.30;;;;;;;14.24;59.36;98423.45;434811;1264;97848;-39
2022/09/24 16:08:03;;;;;;;16.90;9.80;;;;;;;14.18;59.84;98413.61;434163;1265;111533;-41
2022/09/24 16:18:14;;;;;;;13.60;9.90;;;;;;;14.02;60.27;98411.02;434940;1264;108945;-42
2022/09/24 16:28:21;;;;;;;23.20;13.40;;;;;;;13.60;61.04;98423.07;434815;1264;109015;-41
2022/09/24 16:38:28;;;;;;;25.80;15.40;;;;;;;13.09;61.57;98425.99;435167;1264;97477;-41
2022/09/24 16:48:36;;;;;;;23.50;16.40;;;;;;;12.67;62.41;98432.74;434306;1264;108803;-41
2022/09/24 16:58:45;;;;;;;66.40;40.50;;;;;;;12.29;63.51;98430.94;435101;1264;97974;-39
2022/09/24 17:19:17;;;;;;;49.70;27.30;;;;;;;11.28;64.93;98438.60;434191;1264;111434;-40
2022/09/24 17:29:24;;;;;;;44.30;27.60;;;;;;;11.02;65.57;98436.61;434851;1265;109280;-40
2022/09/24 17:39:37;;;;;;;61.70;38.60;;;;;;;10.88;66.35;98431.27;434583;1264;97452;-41
2022/09/24 17:49:45;;;;;;;90.90;49.50;;;;;;;10.69;67.00;98431.12;434444;1264;108755;-41
2022/09/24 17:59:52;;;;;;;63.10;39.60;;;;;;;10.55;67.72;98438.34;434897;1264;109049;-40
2022/09/24 18:09:59;;;;;;;68.90;43.90;;;;;;;10.49;68.13;98442.88;434894;1262;98187;-40
2022/09/24 18:20:07;;;;;;;98.50;51.00;;;;;;;10.53;68.68;98435.08;434306;1264;359967;-40
2022/09/24 18:30:14;;;;;;;71.60;42.70;;;;;;;10.45;68.99;98430.91;434949;1264;97871;-41
2022/09/24 18:40:22;;;;;;;71.80;40.90;;;;;;;10.32;69.38;98429.09;434908;1263;109021;-41
2022/09/24 18:50:30;;;;;;;66.80;41.30;;;;;;;10.09;69.62;98427.84;434912;1265;108832;-40
2022/09/24 19:00:50;;;;;;;60.70;37.80;;;;;;;9.89;70.01;98436.90;434586;1264;108949;-40
2022/09/24 19:11:01;;;;;;;83.30;47.90;;;;;;;9.82;70.66;98439.70;434606;1265;97947;-38
2022/09/24 19:21:06;;;;;;;54.60;37.20;;;;;;;9.83;70.88;98439.29;434447;1264;108936;-40
2022/09/24 19:31:15;;;;;;;77.80;46.50;;;;;;;9.78;71.20;98437.30;434811;1264;97573;-40
2022/09/24 19:41:25;;;;;;;76.50;49.30;;;;;;;9.77;71.69;98437.20;434838;1264;112684;-41
2022/09/24 19:51:34;;;;;;;77.50;45.90;;;;;;;9.76;71.87;98433.45;434509;1265;108920;-42
2022/09/24 20:11:49;;;;;;;66.30;41.30;;;;;;;10.03;72.61;98433.36;434952;1264;108665;-41
2022/09/24 20:21:57;;;;;;;71.30;40.40;;;;;;;10.33;72.63;98435.82;434593;1264;98836;-41
2022/09/24 20:32:05;;;;;;;85.00;50.90;;;;;;;10.37;72.49;98434.15;434898;1265;112290;-40
2022/09/24 20:42:12;;;;;;;101.70;60.20;;;;;;;10.21;72.56;98431.06;435109;1264;108968;-41
2022/09/24 20:52:20;;;;;;;97.60;56.60;;;;;;;10.03;72.74;98433.26;434964;1262;99537;-41
2022/09/24 21:02:27;;;;;;;92.00;54.70;;;;;;;9.90;72.77;98434.17;434684;1264;109071;-41
2022/09/24 21:12:34;;;;;;;103.20;59.80;;;;;;;9.74;72.92;98430.75;434733;1264;99235;-41
2022/09/24 21:22:40;;;;;;;87.70;53.30;;;;;;;9.59;73.18;98422.74;435051;1265;110968;-39
2022/09/24 21:32:47;;;;;;;82.80;49.20;;;;;;;9.49;73.49;98414.34;434825;1263;106484;-39
2022/09/24 21:42:54;;;;;;;76.80;44.80;;;;;;;9.38;73.74;98418.85;435164;1265;99248;-39
2022/09/24 22:13:16;;;;;;;81.10;47.40;;;;;;;9.03;74.21;98396.67;434576;1265;113452;-40
2022/09/24 22:23:24;;;;;;;87.40;49.80;;;;;;;8.96;74.44;98394.72;434303;1264;108823;-40
2022/09/24 22:43:57;;;;;;;93.60;52.80;;;;;;;8.79;74.92;98405.23;435013;1265;108369;-40
2022/09/24 23:14:18;;;;;;;85.20;52.40;;;;;;;8.22;75.41;98392.27;434481;1264;108731;-41
2022/09/24 23:24:26;;;;;;;86.60;50.30;;;;;;;8.15;75.71;98395.93;434707;1264;99133;-40
2022/09/24 23:34:33;;;;;;;77.10;46.60;;;;;;;8.16;75.88;98399.92;434841;1264;108849;-41
2022/09/24 23:44:40;;;;;;;81.80;45.50;;;;;;;8.13;75.88;98399.23;434573;1264;99219;-40
2022/09/24 23:54:48;;;;;;;83.10;48.00;;;;;;;8.02;76.25;98397.08;434866;1264;112546;-40
